createdAt,value
2022-09-13T00:01:01.417Z,11.90
2022-09-13T00:03:29.700Z,11.90
2022-09-13T00:05:57.834Z,11.90
2022-09-13T00:08:25.539Z,12.00
2022-09-13T00:10:53.265Z,12.00
2022-09-13T00:13:20.951Z,12.00
2022-09-13T00:15:50.504Z,12.00
2022-09-13T00:18:20.386Z,12.10
2022-09-13T00:20:48.217Z,12.10
2022-09-13T00:23:15.923Z,12.10
2022-09-13T00:25:43.679Z,12.20
2022-09-13T00:28:11.388Z,12.20
2022-09-13T00:30:39.092Z,12.30
2022-09-13T00:33:06.796Z,12.20
2022-09-13T00:35:35.891Z,12.20
2022-09-13T00:38:03.626Z,12.10
2022-09-13T00:40:31.383Z,12.10
2022-09-13T00:42:59.087Z,12.20
2022-09-13T00:45:26.892Z,12.10
2022-09-13T00:47:58.308Z,12.10
2022-09-13T00:50:32.383Z,12.20
2022-09-13T00:53:04.944Z,12.20
2022-09-13T00:55:38.116Z,12.30
2022-09-13T00:58:08.958Z,12.30
2022-09-13T01:00:38.917Z,12.30
2022-09-13T01:03:11.824Z,12.30
2022-09-13T01:05:43.606Z,12.40
2022-09-13T01:08:22.309Z,12.50
2022-09-13T01:10:51.997Z,12.50
2022-09-13T01:13:21.917Z,12.60
2022-09-13T01:15:50.277Z,12.60
2022-09-13T01:18:18.677Z,12.80
2022-09-13T01:21:05.633Z,12.80
2022-09-13T01:23:57.498Z,12.70
2022-09-13T01:27:00.571Z,12.80
2022-09-13T01:29:51.369Z,12.70
2022-09-13T01:32:31.012Z,12.60
2022-09-13T01:35:07.965Z,12.70
2022-09-13T01:37:48.246Z,12.70
2022-09-13T01:40:32.791Z,12.80
2022-09-13T01:43:15.113Z,12.80
2022-09-13T01:45:51.423Z,12.70
2022-09-13T01:48:24.255Z,12.70
2022-09-13T01:51:01.261Z,12.60
2022-09-13T01:53:37.024Z,12.60
2022-09-13T01:56:11.762Z,12.50
2022-09-13T01:58:46.581Z,12.40
2022-09-13T02:01:19.082Z,12.40
2022-09-13T02:03:58.587Z,12.40
2022-09-13T02:06:31.333Z,12.40
2022-09-13T02:09:02.311Z,12.40
2022-09-13T02:11:30.504Z,12.30
2022-09-13T02:14:02.686Z,12.20
2022-09-13T02:16:35.273Z,12.20
2022-09-13T02:19:13.603Z,12.20
2022-09-13T02:21:45.541Z,12.10
2022-09-13T02:24:17.133Z,12.10
2022-09-13T02:26:47.944Z,12.10
2022-09-13T02:29:21.115Z,12.00
2022-09-13T02:31:52.979Z,12.00
2022-09-13T02:34:24.318Z,11.90
2022-09-13T02:36:55.338Z,11.90
2022-09-13T02:39:28.201Z,11.90
2022-09-13T02:41:59.790Z,11.80
2022-09-13T02:44:34.137Z,11.90
2022-09-13T02:47:12.959Z,11.90
2022-09-13T02:49:55.540Z,11.80
2022-09-13T02:52:34.030Z,11.80
2022-09-13T02:55:12.061Z,11.70
2022-09-13T02:57:46.073Z,11.70
2022-09-13T03:00:14.051Z,11.80
2022-09-13T03:02:44.415Z,11.70
2022-09-13T03:05:13.577Z,11.80
2022-09-13T03:07:41.314Z,11.80
2022-09-13T03:10:12.707Z,11.80
2022-09-13T03:13:06.842Z,11.80
2022-09-13T03:15:52.083Z,11.80
2022-09-13T03:18:37.433Z,11.80
2022-09-13T03:21:17.546Z,11.70
2022-09-13T03:23:54.267Z,11.70
2022-09-13T03:26:31.433Z,11.70
2022-09-13T03:29:22.886Z,11.80
2022-09-13T03:31:58.402Z,11.80
2022-09-13T03:34:34.876Z,11.70
2022-09-13T03:37:09.572Z,11.80
2022-09-13T03:39:44.102Z,11.80
2022-09-13T03:42:17.731Z,11.90
2022-09-13T03:44:49.241Z,11.90
2022-09-13T03:47:18.991Z,11.90
2022-09-13T03:49:46.816Z,11.90
2022-09-13T03:52:15.931Z,11.90
2022-09-13T03:54:43.904Z,11.90
2022-09-13T03:57:13.983Z,11.80
2022-09-13T03:59:46.826Z,11.80
2022-09-13T04:02:15.310Z,11.80
2022-09-13T04:04:44.459Z,11.70
2022-09-13T04:07:14.005Z,11.60
2022-09-13T04:09:43.214Z,11.50
2022-09-13T04:12:11.131Z,11.50
2022-09-13T04:14:39.135Z,11.50
2022-09-13T04:17:07.578Z,11.50
2022-09-13T04:19:35.460Z,11.50
2022-09-13T04:22:03.860Z,11.50
2022-09-13T04:24:32.234Z,11.50
2022-09-13T04:27:02.818Z,11.50
2022-09-13T04:29:31.766Z,11.50
2022-09-13T04:31:59.792Z,11.50
2022-09-13T04:34:28.040Z,11.60
2022-09-13T04:36:55.850Z,11.60
2022-09-13T04:39:24.145Z,11.60
2022-09-13T04:41:54.752Z,11.60
2022-09-13T04:44:24.629Z,11.60
2022-09-13T04:46:52.923Z,11.70
2022-09-13T04:49:21.946Z,11.80
2022-09-13T04:51:49.937Z,11.80
2022-09-13T04:54:17.941Z,11.90
2022-09-13T04:56:45.910Z,12.00
2022-09-13T04:59:14.656Z,12.10
2022-09-13T05:01:43.785Z,12.10
2022-09-13T05:04:12.049Z,12.30
2022-09-13T05:06:40.020Z,12.30
2022-09-13T05:09:08.245Z,12.40
2022-09-13T05:11:35.979Z,12.50
2022-09-13T05:14:04.066Z,12.50
2022-09-13T05:16:33.164Z,12.60
2022-09-13T05:19:02.862Z,12.70
2022-09-13T05:21:31.487Z,12.70
2022-09-13T05:23:59.950Z,12.90
2022-09-13T05:26:31.298Z,13.00
2022-09-13T05:29:00.052Z,13.10
2022-09-13T05:31:30.601Z,13.20
2022-09-13T05:34:01.004Z,13.30
2022-09-13T05:36:30.734Z,13.30
2022-09-13T05:39:19.186Z,13.40
2022-09-13T05:41:46.946Z,13.50
2022-09-13T05:44:14.732Z,13.60
2022-09-13T05:46:42.823Z,13.70
2022-09-13T05:49:10.766Z,13.80
2022-09-13T05:51:39.915Z,13.70
2022-09-13T05:54:07.632Z,13.70
2022-09-13T05:56:35.331Z,13.60
2022-09-13T05:59:03.053Z,13.60
2022-09-13T06:01:31.117Z,13.60
2022-09-13T06:04:00.622Z,13.60
2022-09-13T06:06:28.724Z,13.50
2022-09-13T06:08:58.519Z,13.50
2022-09-13T06:11:27.427Z,13.50
2022-09-13T06:13:55.456Z,13.50
2022-09-13T06:16:23.327Z,13.60
2022-09-13T06:18:51.374Z,13.60
2022-09-13T06:21:22.944Z,13.60
2022-09-13T06:23:55.199Z,13.50
2022-09-13T06:26:25.584Z,13.50
2022-09-13T06:28:54.934Z,13.50
2022-09-13T06:31:24.864Z,13.60
2022-09-13T06:33:57.969Z,13.60
2022-09-13T06:36:26.379Z,13.60
2022-09-13T06:38:54.327Z,13.70
2022-09-13T06:41:26.333Z,13.70
2022-09-13T06:43:55.249Z,13.70
2022-09-13T06:46:25.063Z,13.70
2022-09-13T06:48:53.569Z,13.70
2022-09-13T06:51:23.524Z,13.70
2022-09-13T06:53:52.732Z,13.80
2022-09-13T06:56:22.039Z,13.80
2022-09-13T06:58:53.133Z,13.80
2022-09-13T07:01:23.192Z,13.80
2022-09-13T07:03:53.009Z,13.90
2022-09-13T07:06:22.980Z,14.00
2022-09-13T07:08:52.850Z,14.20
2022-09-13T07:11:22.596Z,14.40
2022-09-13T07:13:52.541Z,14.50
2022-09-13T07:16:21.842Z,14.60
2022-09-13T07:18:52.397Z,14.70
2022-09-13T07:21:20.985Z,14.90
2022-09-13T07:23:48.919Z,15.00
2022-09-13T07:26:16.898Z,15.00
2022-09-13T07:28:46.381Z,15.00
2022-09-13T07:31:17.961Z,15.10
2022-09-13T07:33:46.214Z,15.00
2022-09-13T07:36:14.511Z,15.00
2022-09-13T07:38:45.251Z,15.10
2022-09-13T07:41:15.381Z,15.20
2022-09-13T07:43:43.260Z,15.30
2022-09-13T07:46:12.539Z,15.30
2022-09-13T07:48:43.389Z,15.40
2022-09-13T07:51:13.453Z,15.40
2022-09-13T07:53:43.005Z,15.50
2022-09-13T07:56:12.823Z,15.50
2022-09-13T07:58:41.903Z,15.50
2022-09-13T08:01:12.052Z,15.50
2022-09-13T08:03:41.390Z,15.50
2022-09-13T08:06:09.636Z,15.60
2022-09-13T08:08:38.390Z,15.80
2022-09-13T08:11:07.597Z,16.00
2022-09-13T08:13:35.428Z,16.20
2022-09-13T08:16:04.911Z,16.40
2022-09-13T08:18:33.222Z,16.50
2022-09-13T08:21:02.843Z,16.60
2022-09-13T08:23:31.199Z,16.70
2022-09-13T08:26:03.255Z,16.70
2022-09-13T08:28:32.239Z,16.70
2022-09-13T08:31:05.477Z,16.80
2022-09-13T08:33:33.641Z,17.10
2022-09-13T08:36:03.166Z,17.10
2022-09-13T08:38:31.260Z,17.30
2022-09-13T08:41:03.375Z,17.50
2022-09-13T08:43:41.733Z,17.50
2022-09-13T08:46:15.804Z,17.80
2022-09-13T08:48:47.657Z,18.00
2022-09-13T08:51:29.211Z,18.20
2022-09-13T08:53:58.671Z,18.30
2022-09-13T08:56:33.455Z,18.40
2022-09-13T08:59:13.930Z,18.50
2022-09-13T09:01:54.973Z,18.90
2022-09-13T09:04:35.750Z,19.80
2022-09-13T09:07:10.038Z,21.00
2022-09-13T09:09:44.515Z,22.30
2022-09-13T09:12:18.262Z,22.70
2022-09-13T09:14:50.127Z,23.20
2022-09-13T09:17:23.641Z,22.60
2022-09-13T09:19:55.851Z,24.20
2022-09-13T09:22:30.893Z,25.90
2022-09-13T09:24:59.529Z,26.00
2022-09-13T09:27:27.347Z,25.50
2022-09-13T09:29:58.139Z,24.90
2022-09-13T09:32:53.621Z,24.40
2022-09-13T09:35:33.267Z,23.40
2022-09-13T09:38:23.926Z,22.40
2022-09-13T09:40:52.145Z,22.20
2022-09-13T09:43:27.136Z,22.20
2022-09-13T09:45:58.188Z,21.90
2022-09-13T09:48:31.901Z,22.20
2022-09-13T09:51:00.951Z,23.20
2022-09-13T09:53:37.049Z,24.20
2022-09-13T09:56:16.690Z,24.20
2022-09-13T09:58:46.727Z,23.60
2022-09-13T10:01:22.585Z,23.00
2022-09-13T10:03:58.853Z,22.20
2022-09-13T10:06:30.060Z,21.70
2022-09-13T10:09:02.366Z,21.50
2022-09-13T10:11:42.140Z,21.30
2022-09-13T10:14:33.183Z,21.10
2022-09-13T10:17:06.702Z,21.00
2022-09-13T10:19:34.650Z,20.90
2022-09-13T10:22:05.695Z,20.90
2022-09-13T10:24:34.824Z,21.00
2022-09-13T10:27:05.350Z,21.10
2022-09-13T10:29:33.919Z,21.10
2022-09-13T10:32:12.902Z,21.20
2022-09-13T10:34:46.600Z,21.40
2022-09-13T10:37:19.336Z,21.50
2022-09-13T10:40:01.656Z,21.60
2022-09-13T10:42:31.090Z,21.80
2022-09-13T10:45:02.085Z,22.90
2022-09-13T10:47:35.705Z,23.40
2022-09-13T10:50:24.409Z,23.30
2022-09-13T10:52:53.889Z,22.80
2022-09-13T10:55:29.348Z,22.60
2022-09-13T10:58:14.519Z,22.20
2022-09-13T11:00:54.353Z,21.90
2022-09-13T11:03:32.188Z,21.80
2022-09-13T11:06:06.515Z,21.80
2022-09-13T11:08:43.672Z,21.50
2022-09-13T11:11:23.123Z,21.70
2022-09-13T11:14:04.884Z,21.90
2022-09-13T11:16:49.624Z,22.50
2022-09-13T11:19:56.339Z,22.80
2022-09-13T11:22:37.125Z,22.60
2022-09-13T11:25:18.034Z,22.40
2022-09-13T11:27:55.254Z,22.00
2022-09-13T11:30:29.672Z,21.60
2022-09-13T11:33:14.318Z,21.50
2022-09-13T11:35:54.404Z,21.30
2022-09-13T11:38:37.573Z,21.20
2022-09-13T11:41:16.959Z,21.00
2022-09-13T11:43:57.708Z,20.90
2022-09-13T11:46:34.227Z,20.80
2022-09-13T11:49:27.227Z,20.80
2022-09-13T11:52:07.983Z,20.90
2022-09-13T11:54:53.221Z,21.10
2022-09-13T11:57:26.277Z,21.30
2022-09-13T12:00:00.005Z,21.40
2022-09-13T12:02:32.820Z,21.50
2022-09-13T12:05:21.648Z,21.50
2022-09-13T12:07:54.070Z,21.50
2022-09-13T12:10:25.235Z,21.30
2022-09-13T12:12:55.821Z,21.10
2022-09-13T12:15:34.042Z,20.90
2022-09-13T12:18:06.687Z,20.90
2022-09-13T12:20:37.037Z,20.90
2022-09-13T12:23:08.974Z,21.00
2022-09-13T12:25:45.015Z,21.00
2022-09-13T12:28:20.322Z,21.10
2022-09-13T12:30:55.422Z,21.20
2022-09-13T12:33:23.839Z,21.30
2022-09-13T12:36:06.490Z,21.40
2022-09-13T12:39:01.599Z,21.40
2022-09-13T12:41:43.570Z,21.30
2022-09-13T12:44:35.949Z,21.20
2022-09-13T12:47:54.803Z,21.20
2022-09-13T12:50:45.952Z,21.20
2022-09-13T12:53:36.054Z,21.30
2022-09-13T12:56:12.670Z,21.40
2022-09-13T12:59:03.853Z,21.40
2022-09-13T13:01:33.851Z,21.40
2022-09-13T13:04:09.582Z,21.40
2022-09-13T13:06:42.159Z,21.40
2022-09-13T13:09:28.625Z,21.50
2022-09-13T13:11:58.450Z,21.70
2022-09-13T13:14:44.129Z,21.90
2022-09-13T13:17:37.634Z,21.80
2022-09-13T13:20:57.230Z,21.90
2022-09-13T13:23:29.862Z,21.90
2022-09-13T13:26:05.726Z,21.80
2022-09-13T13:29:14.042Z,21.60
2022-09-13T13:31:44.411Z,21.50
2022-09-13T13:34:42.416Z,21.40
2022-09-13T13:37:37.681Z,21.60
2022-09-13T13:40:23.593Z,21.90
2022-09-13T13:42:51.927Z,22.00
2022-09-13T13:45:26.568Z,22.00
2022-09-13T13:48:07.175Z,22.00
2022-09-13T13:50:37.718Z,22.10
2022-09-13T13:53:22.571Z,21.90
2022-09-13T13:56:09.694Z,21.90
2022-09-13T13:58:48.408Z,21.80
2022-09-13T14:01:21.959Z,21.90
2022-09-13T14:04:14.805Z,21.90
2022-09-13T14:06:51.658Z,21.90
2022-09-13T14:09:33.434Z,21.80
2022-09-13T14:12:18.420Z,21.60
2022-09-13T14:15:01.491Z,21.40
2022-09-13T14:17:47.775Z,21.10
2022-09-13T14:20:19.552Z,21.10
2022-09-13T14:22:47.387Z,21.00
2022-09-13T14:25:23.529Z,20.80
2022-09-13T14:27:57.790Z,20.80
2022-09-13T14:30:30.361Z,20.90
2022-09-13T14:32:59.662Z,20.90
2022-09-13T14:35:33.032Z,20.90
2022-09-13T14:38:13.734Z,20.80
2022-09-13T14:40:41.534Z,20.90
2022-09-13T14:43:18.065Z,20.90
2022-09-13T14:45:48.103Z,21.00
2022-09-13T14:48:19.826Z,21.20
2022-09-13T14:50:51.449Z,21.30
2022-09-13T14:53:23.484Z,21.30
2022-09-13T14:55:53.993Z,21.40
2022-09-13T14:58:27.728Z,21.40
2022-09-13T15:00:59.657Z,21.30
2022-09-13T15:03:28.568Z,21.30
2022-09-13T15:05:59.267Z,21.30
2022-09-13T15:08:40.422Z,21.10
2022-09-13T15:11:15.331Z,21.10
2022-09-13T15:13:45.145Z,21.20
2022-09-13T15:16:27.521Z,21.20
2022-09-13T15:19:16.148Z,21.20
2022-09-13T15:21:45.596Z,21.20
2022-09-13T15:24:22.652Z,21.10
2022-09-13T15:27:01.720Z,20.90
2022-09-13T15:29:34.694Z,20.80
2022-09-13T15:32:03.118Z,20.80
2022-09-13T15:34:31.106Z,20.80
2022-09-13T15:37:11.501Z,20.80
2022-09-13T15:39:48.454Z,20.80
2022-09-13T15:42:17.364Z,20.70
2022-09-13T15:44:46.513Z,20.60
2022-09-13T15:47:18.201Z,20.50
2022-09-13T15:49:50.684Z,20.60
2022-09-13T15:52:19.467Z,20.60
2022-09-13T15:54:49.200Z,20.60
2022-09-13T15:57:20.782Z,20.50
2022-09-13T15:59:49.952Z,20.40
2022-09-13T16:02:22.955Z,20.20
2022-09-13T16:04:51.357Z,19.90
2022-09-13T16:07:19.808Z,19.90
2022-09-13T16:09:48.038Z,19.80
2022-09-13T16:12:16.412Z,19.70
2022-09-13T16:14:44.105Z,19.70
2022-09-13T16:17:17.118Z,19.60
2022-09-13T16:19:44.799Z,19.60
2022-09-13T16:22:13.011Z,19.60
2022-09-13T16:24:40.845Z,19.50
2022-09-13T16:27:08.979Z,19.50
2022-09-13T16:29:36.740Z,19.50
2022-09-13T16:32:05.096Z,19.40
2022-09-13T16:34:34.347Z,19.30
2022-09-13T16:37:02.164Z,19.40
2022-09-13T16:39:30.012Z,19.30
2022-09-13T16:41:57.891Z,19.20
2022-09-13T16:44:25.685Z,19.20
2022-09-13T16:46:53.497Z,19.20
2022-09-13T16:49:21.354Z,19.10
2022-09-13T16:51:50.656Z,19.00
2022-09-13T16:54:18.425Z,18.90
2022-09-13T16:56:46.136Z,18.90
2022-09-13T16:59:13.846Z,18.90
2022-09-13T17:01:41.635Z,18.90
2022-09-13T17:04:11.323Z,18.80
2022-09-13T17:06:39.057Z,18.70
2022-09-13T17:09:08.338Z,18.60
2022-09-13T17:11:38.750Z,18.60
2022-09-13T17:14:09.328Z,18.50
2022-09-13T17:16:40.015Z,18.40
2022-09-13T17:19:10.202Z,18.30
2022-09-13T17:21:37.982Z,18.20
2022-09-13T17:24:11.347Z,18.10
2022-09-13T17:26:43.116Z,18.00
2022-09-13T17:29:13.123Z,17.90
2022-09-13T17:31:43.290Z,17.90
2022-09-13T17:34:11.407Z,17.80
2022-09-13T17:36:39.687Z,17.80
2022-09-13T17:39:08.131Z,17.80
2022-09-13T17:41:36.415Z,17.80
2022-09-13T17:44:05.831Z,17.70
2022-09-13T17:46:33.794Z,17.70
2022-09-13T17:49:01.649Z,17.70
2022-09-13T17:51:32.419Z,17.70
2022-09-13T17:54:02.003Z,17.60
2022-09-13T17:56:32.030Z,17.40
2022-09-13T17:59:10.405Z,17.40
2022-09-13T18:01:39.992Z,17.20
2022-09-13T18:04:08.767Z,17.20
2022-09-13T18:06:36.642Z,17.10
2022-09-13T18:09:04.779Z,17.00
2022-09-13T18:11:32.568Z,16.90
2022-09-13T18:14:00.292Z,16.90
2022-09-13T18:16:30.394Z,16.90
2022-09-13T18:18:59.925Z,16.90
2022-09-13T18:21:28.660Z,16.80
2022-09-13T18:23:59.013Z,16.70
2022-09-13T18:26:28.088Z,16.60
2022-09-13T18:28:58.140Z,16.50
2022-09-13T18:31:29.580Z,16.40
2022-09-13T18:33:59.148Z,16.40
2022-09-13T18:36:28.529Z,16.30
2022-09-13T18:38:58.032Z,16.30
2022-09-13T18:41:27.350Z,16.20
2022-09-13T18:43:56.406Z,16.20
2022-09-13T18:46:26.011Z,16.30
2022-09-13T18:48:57.570Z,16.20
2022-09-13T18:51:27.378Z,16.10
2022-09-13T18:53:56.594Z,16.00
2022-09-13T18:56:26.053Z,16.10
2022-09-13T18:58:54.902Z,16.00
2022-09-13T19:01:24.711Z,15.90
2022-09-13T19:03:55.931Z,15.80
2022-09-13T19:06:25.554Z,15.70
2022-09-13T19:08:55.011Z,15.70
2022-09-13T19:11:45.428Z,15.60
2022-09-13T19:14:15.300Z,15.60
2022-09-13T19:16:43.051Z,15.60
2022-09-13T19:19:12.353Z,15.50
2022-09-13T19:21:40.242Z,15.40
2022-09-13T19:24:14.867Z,15.40
2022-09-13T19:26:46.142Z,15.30
2022-09-13T19:29:16.027Z,15.30
2022-09-13T19:31:47.520Z,15.30
2022-09-13T19:34:17.775Z,15.20
2022-09-13T19:36:46.078Z,15.30
2022-09-13T19:39:13.992Z,15.20
2022-09-13T19:41:42.076Z,15.20
2022-09-13T19:44:12.124Z,15.20
2022-09-13T19:46:41.746Z,15.20
2022-09-13T19:49:14.061Z,15.20
2022-09-13T19:51:48.796Z,15.10
2022-09-13T19:54:19.258Z,15.10
2022-09-13T19:56:47.767Z,15.00
2022-09-13T19:59:17.260Z,15.00
2022-09-13T20:01:46.932Z,15.00
2022-09-13T20:04:16.853Z,14.90
2022-09-13T20:06:48.993Z,14.90
2022-09-13T20:09:19.364Z,14.90
2022-09-13T20:11:48.641Z,14.90
2022-09-13T20:14:18.374Z,14.90
2022-09-13T20:16:46.220Z,14.90
2022-09-13T20:19:39.734Z,14.90
2022-09-13T20:22:08.529Z,14.90
2022-09-13T20:24:36.667Z,14.90
2022-09-13T20:27:04.690Z,14.90
2022-09-13T20:29:32.481Z,14.90
2022-09-13T20:32:02.131Z,14.90
2022-09-13T20:34:29.961Z,14.90
2022-09-13T20:36:57.712Z,14.90
2022-09-13T20:39:26.807Z,14.80
2022-09-13T20:41:54.679Z,14.80
2022-09-13T20:44:22.535Z,14.80
2022-09-13T20:46:50.236Z,14.70
2022-09-13T20:49:17.937Z,14.60
2022-09-13T20:51:46.584Z,14.60
2022-09-13T20:54:14.341Z,14.60
2022-09-13T20:56:43.400Z,14.60
2022-09-13T20:59:11.190Z,14.60
2022-09-13T21:01:39.911Z,14.50
2022-09-13T21:04:07.691Z,14.40
2022-09-13T21:06:39.396Z,14.30
2022-09-13T21:09:06.434Z,14.20
2022-09-13T21:11:36.652Z,14.10
2022-09-13T21:14:08.722Z,14.10
2022-09-13T21:16:39.060Z,14.10
2022-09-13T21:19:07.923Z,14.10
2022-09-13T21:21:37.766Z,14.10
2022-09-13T21:24:09.631Z,13.90
2022-09-13T21:26:39.675Z,13.90
2022-09-13T21:29:10.534Z,13.80
2022-09-13T21:31:38.502Z,13.80
2022-09-13T21:34:07.852Z,13.80
2022-09-13T21:36:36.325Z,13.80
2022-09-13T21:39:05.140Z,13.70
2022-09-13T21:41:33.694Z,13.70
2022-09-13T21:44:01.783Z,13.70
2022-09-13T21:46:33.578Z,13.70
2022-09-13T21:49:03.091Z,13.60
2022-09-13T21:51:33.518Z,13.60
2022-09-13T21:54:02.722Z,13.60
2022-09-13T21:56:32.969Z,13.60
2022-09-13T21:59:02.763Z,13.50
2022-09-13T22:01:34.371Z,13.50
2022-09-13T22:04:03.778Z,13.50
2022-09-13T22:06:33.864Z,13.50
2022-09-13T22:09:04.265Z,13.50
2022-09-13T22:11:33.747Z,13.50
2022-09-13T22:14:02.434Z,13.50
2022-09-13T22:16:33.759Z,13.50
2022-09-13T22:19:08.710Z,13.50
2022-09-13T22:21:39.959Z,13.50
2022-09-13T22:24:09.805Z,13.40
2022-09-13T22:26:40.492Z,13.40
2022-09-13T22:29:09.757Z,13.40
2022-09-13T22:31:42.245Z,13.40
2022-09-13T22:34:14.453Z,13.40
2022-09-13T22:36:42.874Z,13.40
2022-09-13T22:39:12.306Z,13.30
2022-09-13T22:41:40.488Z,13.30
2022-09-13T22:44:08.967Z,13.30
2022-09-13T22:46:40.445Z,13.30
2022-09-13T22:49:09.079Z,13.30
2022-09-13T22:51:36.878Z,13.30
2022-09-13T22:54:07.129Z,13.30
2022-09-13T22:56:37.150Z,13.30
2022-09-13T22:59:07.840Z,13.30
2022-09-13T23:01:36.496Z,13.30
2022-09-13T23:04:06.780Z,13.20
2022-09-13T23:06:35.666Z,13.20
2022-09-13T23:09:06.441Z,13.20
2022-09-13T23:11:36.571Z,13.10
2022-09-13T23:14:06.233Z,13.10
2022-09-13T23:16:35.968Z,13.10
2022-09-13T23:19:05.314Z,13.10
2022-09-13T23:21:35.306Z,13.00
2022-09-13T23:24:05.190Z,13.00
2022-09-13T23:26:33.471Z,13.00
2022-09-13T23:29:03.322Z,13.00
2022-09-13T23:31:32.899Z,12.90
2022-09-13T23:34:03.912Z,13.00
2022-09-13T23:36:36.423Z,13.00
2022-09-13T23:39:05.532Z,13.00
2022-09-13T23:41:34.121Z,13.00
2022-09-13T23:44:02.363Z,13.00
2022-09-13T23:46:30.953Z,13.00
2022-09-13T23:48:58.762Z,13.00
2022-09-13T23:51:28.147Z,13.10
2022-09-13T23:54:00.520Z,13.10
2022-09-13T23:56:29.975Z,13.00
2022-09-13T23:58:58.882Z,13.10
